sensor_id;sensor_type;location;lat;lon;timestamp;temperature;humidity
23271;DHT22;11804;51.118;17.058;2023-07-16T00:02:06;24.00;91.70
23271;DHT22;11804;51.118;17.058;2023-07-16T00:04:33;23.90;92.50
23271;DHT22;11804;51.118;17.058;2023-07-16T00:07:01;23.90;92.60
23271;DHT22;11804;51.118;17.058;2023-07-16T00:09:29;24.00;92.40
23271;DHT22;11804;51.118;17.058;2023-07-16T00:11:57;24.10;91.90
23271;DHT22;11804;51.118;17.058;2023-07-16T00:14:25;24.10;91.60
23271;DHT22;11804;51.118;17.058;2023-07-16T00:16:52;24.20;91.60
23271;DHT22;11804;51.118;17.058;2023-07-16T00:19:20;24.10;92.30
23271;DHT22;11804;51.118;17.058;2023-07-16T00:21:47;24.00;92.90
23271;DHT22;11804;51.118;17.058;2023-07-16T00:24:15;24.00;93.10
23271;DHT22;11804;51.118;17.058;2023-07-16T00:26:43;24.10;93.30
23271;DHT22;11804;51.118;17.058;2023-07-16T00:29:11;23.90;94.60
23271;DHT22;11804;51.118;17.058;2023-07-16T00:31:38;23.80;95.50
23271;DHT22;11804;51.118;17.058;2023-07-16T00:34:06;23.70;97.00
23271;DHT22;11804;51.118;17.058;2023-07-16T00:36:33;23.60;98.00
23271;DHT22;11804;51.118;17.058;2023-07-16T00:39:01;23.70;97.80
23271;DHT22;11804;51.118;17.058;2023-07-16T00:41:29;23.80;97.40
23271;DHT22;11804;51.118;17.058;2023-07-16T00:43:56;23.80;97.40
23271;DHT22;11804;51.118;17.058;2023-07-16T00:46:25;23.70;98.50
23271;DHT22;11804;51.118;17.058;2023-07-16T00:48:53;23.60;99.20
23271;DHT22;11804;51.118;17.058;2023-07-16T00:51:22;23.50;99.80
23271;DHT22;11804;51.118;17.058;2023-07-16T00:53:51;23.60;99.90
23271;DHT22;11804;51.118;17.058;2023-07-16T00:56:19;23.40;99.90
23271;DHT22;11804;51.118;17.058;2023-07-16T00:58:47;23.20;99.90
23271;DHT22;11804;51.118;17.058;2023-07-16T01:01:16;23.30;99.90
23271;DHT22;11804;51.118;17.058;2023-07-16T01:03:43;23.20;99.90
23271;DHT22;11804;51.118;17.058;2023-07-16T01:08:55;23.20;99.90
23271;DHT22;11804;51.118;17.058;2023-07-16T01:11:22;23.30;99.90
23271;DHT22;11804;51.118;17.058;2023-07-16T01:13:50;23.40;99.90
23271;DHT22;11804;51.118;17.058;2023-07-16T01:16:22;23.40;99.90
23271;DHT22;11804;51.118;17.058;2023-07-16T01:18:51;23.30;99.90
23271;DHT22;11804;51.118;17.058;2023-07-16T01:21:23;23.10;99.90
23271;DHT22;11804;51.118;17.058;2023-07-16T01:26:43;22.90;99.90
23271;DHT22;11804;51.118;17.058;2023-07-16T01:32:01;22.90;99.90
23271;DHT22;11804;51.118;17.058;2023-07-16T01:34:32;22.70;99.90
23271;DHT22;11804;51.118;17.058;2023-07-16T01:37:02;22.60;99.90
23271;DHT22;11804;51.118;17.058;2023-07-16T01:39:30;22.60;99.90
23271;DHT22;11804;51.118;17.058;2023-07-16T01:42:00;22.70;99.90
23271;DHT22;11804;51.118;17.058;2023-07-16T01:44:28;22.60;99.90
23271;DHT22;11804;51.118;17.058;2023-07-16T01:47:19;22.50;99.90
23271;DHT22;11804;51.118;17.058;2023-07-16T01:49:42;22.50;99.90
23271;DHT22;11804;51.118;17.058;2023-07-16T01:52:09;22.40;99.90
23271;DHT22;11804;51.118;17.058;2023-07-16T01:54:37;22.40;99.90
23271;DHT22;11804;51.118;17.058;2023-07-16T01:57:05;22.40;99.90
23271;DHT22;11804;51.118;17.058;2023-07-16T01:59:34;22.30;99.90
23271;DHT22;11804;51.118;17.058;2023-07-16T02:02:02;22.40;99.90
23271;DHT22;11804;51.118;17.058;2023-07-16T02:04:30;22.40;99.90
23271;DHT22;11804;51.118;17.058;2023-07-16T02:06:57;22.50;99.90
23271;DHT22;11804;51.118;17.058;2023-07-16T02:09:25;22.40;99.90
23271;DHT22;11804;51.118;17.058;2023-07-16T02:11:53;22.30;99.90
23271;DHT22;11804;51.118;17.058;2023-07-16T02:14:20;22.20;99.90
23271;DHT22;11804;51.118;17.058;2023-07-16T02:16:50;22.10;99.90
23271;DHT22;11804;51.118;17.058;2023-07-16T02:19:17;22.10;99.90
23271;DHT22;11804;51.118;17.058;2023-07-16T02:21:44;22.10;99.90
23271;DHT22;11804;51.118;17.058;2023-07-16T02:24:12;22.10;99.90
23271;DHT22;11804;51.118;17.058;2023-07-16T02:26:40;22.10;99.90
23271;DHT22;11804;51.118;17.058;2023-07-16T02:29:07;22.20;99.90
23271;DHT22;11804;51.118;17.058;2023-07-16T02:31:36;22.50;99.90
23271;DHT22;11804;51.118;17.058;2023-07-16T02:34:03;22.60;99.90
23271;DHT22;11804;51.118;17.058;2023-07-16T02:36:31;22.70;99.90
23271;DHT22;11804;51.118;17.058;2023-07-16T02:38:58;22.80;99.90
23271;DHT22;11804;51.118;17.058;2023-07-16T02:41:26;22.70;99.90
23271;DHT22;11804;51.118;17.058;2023-07-16T02:44:04;22.60;99.90
23271;DHT22;11804;51.118;17.058;2023-07-16T02:46:30;22.80;99.90
23271;DHT22;11804;51.118;17.058;2023-07-16T02:48:58;22.60;99.90
23271;DHT22;11804;51.118;17.058;2023-07-16T02:51:25;22.20;99.90
23271;DHT22;11804;51.118;17.058;2023-07-16T02:53:53;22.20;99.90
23271;DHT22;11804;51.118;17.058;2023-07-16T02:56:21;22.40;99.90
23271;DHT22;11804;51.118;17.058;2023-07-16T02:58:48;22.40;99.90
23271;DHT22;11804;51.118;17.058;2023-07-16T03:01:16;22.50;99.90
23271;DHT22;11804;51.118;17.058;2023-07-16T03:03:44;22.40;99.90
23271;DHT22;11804;51.118;17.058;2023-07-16T03:06:11;22.30;99.90
23271;DHT22;11804;51.118;17.058;2023-07-16T03:08:41;22.30;99.90
23271;DHT22;11804;51.118;17.058;2023-07-16T03:11:08;22.40;99.90
23271;DHT22;11804;51.118;17.058;2023-07-16T03:13:36;22.20;99.90
23271;DHT22;11804;51.118;17.058;2023-07-16T03:16:04;22.30;99.90
23271;DHT22;11804;51.118;17.058;2023-07-16T03:18:33;22.30;99.90
23271;DHT22;11804;51.118;17.058;2023-07-16T03:21:02;22.50;99.90
23271;DHT22;11804;51.118;17.058;2023-07-16T03:23:29;22.40;99.90
23271;DHT22;11804;51.118;17.058;2023-07-16T03:25:58;22.40;99.90
23271;DHT22;11804;51.118;17.058;2023-07-16T03:28:26;22.70;99.90
23271;DHT22;11804;51.118;17.058;2023-07-16T03:30:55;23.40;99.90
23271;DHT22;11804;51.118;17.058;2023-07-16T03:33:22;24.20;99.90
23271;DHT22;11804;51.118;17.058;2023-07-16T03:35:50;25.00;96.80
23271;DHT22;11804;51.118;17.058;2023-07-16T03:38:17;25.60;92.80
23271;DHT22;11804;51.118;17.058;2023-07-16T03:40:49;25.90;90.40
23271;DHT22;11804;51.118;17.058;2023-07-16T03:43:17;25.70;90.00
23271;DHT22;11804;51.118;17.058;2023-07-16T03:45:45;25.50;90.70
23271;DHT22;11804;51.118;17.058;2023-07-16T03:48:13;25.30;92.00
23271;DHT22;11804;51.118;17.058;2023-07-16T03:50:41;25.00;93.80
23271;DHT22;11804;51.118;17.058;2023-07-16T03:53:08;24.80;95.30
23271;DHT22;11804;51.118;17.058;2023-07-16T03:55:36;24.80;96.10
23271;DHT22;11804;51.118;17.058;2023-07-16T03:58:03;24.90;95.90
23271;DHT22;11804;51.118;17.058;2023-07-16T04:00:31;25.00;95.60
23271;DHT22;11804;51.118;17.058;2023-07-16T04:02:59;25.10;95.30
23271;DHT22;11804;51.118;17.058;2023-07-16T04:05:27;25.10;95.50
23271;DHT22;11804;51.118;17.058;2023-07-16T04:07:54;25.10;95.90
23271;DHT22;11804;51.118;17.058;2023-07-16T04:10:24;25.70;93.90
23271;DHT22;11804;51.118;17.058;2023-07-16T04:12:51;26.90;87.60
23271;DHT22;11804;51.118;17.058;2023-07-16T04:15:19;28.10;77.40
23271;DHT22;11804;51.118;17.058;2023-07-16T04:17:46;28.80;69.90
23271;DHT22;11804;51.118;17.058;2023-07-16T04:20:14;29.40;65.90
23271;DHT22;11804;51.118;17.058;2023-07-16T04:22:42;30.20;61.10
23271;DHT22;11804;51.118;17.058;2023-07-16T04:25:09;29.90;59.40
23271;DHT22;11804;51.118;17.058;2023-07-16T04:27:38;30.20;59.20
23271;DHT22;11804;51.118;17.058;2023-07-16T04:30:08;30.60;56.20
23271;DHT22;11804;51.118;17.058;2023-07-16T04:32:35;31.10;53.90
23271;DHT22;11804;51.118;17.058;2023-07-16T04:35:03;30.70;53.80
23271;DHT22;11804;51.118;17.058;2023-07-16T04:37:31;29.60;56.60
23271;DHT22;11804;51.118;17.058;2023-07-16T04:39:59;29.60;56.90
23271;DHT22;11804;51.118;17.058;2023-07-16T04:42:26;30.60;55.30
23271;DHT22;11804;51.118;17.058;2023-07-16T04:44:54;31.30;53.10
23271;DHT22;11804;51.118;17.058;2023-07-16T04:47:21;32.30;49.80
23271;DHT22;11804;51.118;17.058;2023-07-16T04:49:49;32.60;49.10
23271;DHT22;11804;51.118;17.058;2023-07-16T04:52:16;33.10;47.40
23271;DHT22;11804;51.118;17.058;2023-07-16T04:54:44;33.50;46.70
23271;DHT22;11804;51.118;17.058;2023-07-16T04:57:11;33.80;45.30
23271;DHT22;11804;51.118;17.058;2023-07-16T04:59:39;34.10;44.80
23271;DHT22;11804;51.118;17.058;2023-07-16T05:02:07;35.10;42.50
23271;DHT22;11804;51.118;17.058;2023-07-16T05:04:35;35.10;42.00
23271;DHT22;11804;51.118;17.058;2023-07-16T05:07:03;34.70;42.70
23271;DHT22;11804;51.118;17.058;2023-07-16T05:09:31;34.60;43.20
23271;DHT22;11804;51.118;17.058;2023-07-16T05:11:59;34.80;41.90
23271;DHT22;11804;51.118;17.058;2023-07-16T05:14:28;35.00;41.80
23271;DHT22;11804;51.118;17.058;2023-07-16T05:16:56;35.40;40.80
23271;DHT22;11804;51.118;17.058;2023-07-16T05:19:24;35.90;39.20
23271;DHT22;11804;51.118;17.058;2023-07-16T05:21:51;36.00;40.10
23271;DHT22;11804;51.118;17.058;2023-07-16T05:24:21;35.70;39.80
23271;DHT22;11804;51.118;17.058;2023-07-16T05:26:48;35.30;40.60
23271;DHT22;11804;51.118;17.058;2023-07-16T05:29:17;35.70;39.60
23271;DHT22;11804;51.118;17.058;2023-07-16T05:31:44;35.50;39.90
23271;DHT22;11804;51.118;17.058;2023-07-16T05:34:13;35.50;39.70
23271;DHT22;11804;51.118;17.058;2023-07-16T05:36:42;35.90;39.30
23271;DHT22;11804;51.118;17.058;2023-07-16T05:39:11;36.40;39.40
23271;DHT22;11804;51.118;17.058;2023-07-16T05:41:41;36.40;38.70
23271;DHT22;11804;51.118;17.058;2023-07-16T05:44:09;36.30;39.10
23271;DHT22;11804;51.118;17.058;2023-07-16T05:46:37;36.20;38.40
23271;DHT22;11804;51.118;17.058;2023-07-16T05:49:05;36.00;39.00
23271;DHT22;11804;51.118;17.058;2023-07-16T05:51:34;35.70;39.20
23271;DHT22;11804;51.118;17.058;2023-07-16T05:54:02;34.70;40.80
23271;DHT22;11804;51.118;17.058;2023-07-16T05:56:30;34.20;41.90
23271;DHT22;11804;51.118;17.058;2023-07-16T05:58:58;34.90;41.10
23271;DHT22;11804;51.118;17.058;2023-07-16T06:01:25;35.90;39.30
23271;DHT22;11804;51.118;17.058;2023-07-16T06:03:53;36.90;37.80
23271;DHT22;11804;51.118;17.058;2023-07-16T06:06:21;38.20;35.10
23271;DHT22;11804;51.118;17.058;2023-07-16T06:08:48;36.40;36.70
23271;DHT22;11804;51.118;17.058;2023-07-16T06:11:16;34.70;39.40
23271;DHT22;11804;51.118;17.058;2023-07-16T06:13:43;33.50;41.90
23271;DHT22;11804;51.118;17.058;2023-07-16T06:16:11;32.00;44.80
23271;DHT22;11804;51.118;17.058;2023-07-16T06:18:39;31.40;45.70
23271;DHT22;11804;51.118;17.058;2023-07-16T06:21:06;31.20;46.60
23271;DHT22;11804;51.118;17.058;2023-07-16T06:23:34;31.30;46.60
23271;DHT22;11804;51.118;17.058;2023-07-16T06:26:02;31.90;45.80
23271;DHT22;11804;51.118;17.058;2023-07-16T06:28:29;33.00;43.40
23271;DHT22;11804;51.118;17.058;2023-07-16T06:30:57;32.90;43.40
23271;DHT22;11804;51.118;17.058;2023-07-16T06:33:24;32.40;44.50
23271;DHT22;11804;51.118;17.058;2023-07-16T06:35:53;32.30;44.30
23271;DHT22;11804;51.118;17.058;2023-07-16T06:38:21;31.30;45.90
23271;DHT22;11804;51.118;17.058;2023-07-16T06:40:50;30.90;46.50
23271;DHT22;11804;51.118;17.058;2023-07-16T06:43:18;30.50;47.70
23271;DHT22;11804;51.118;17.058;2023-07-16T06:45:48;30.60;48.10
23271;DHT22;11804;51.118;17.058;2023-07-16T06:48:15;30.80;47.90
23271;DHT22;11804;51.118;17.058;2023-07-16T06:50:42;31.00;47.60
23271;DHT22;11804;51.118;17.058;2023-07-16T06:53:10;31.20;47.60
23271;DHT22;11804;51.118;17.058;2023-07-16T06:55:38;30.30;48.50
23271;DHT22;11804;51.118;17.058;2023-07-16T06:58:05;29.90;49.60
23271;DHT22;11804;51.118;17.058;2023-07-16T07:00:34;29.60;50.40
23271;DHT22;11804;51.118;17.058;2023-07-16T07:03:02;29.60;50.60
23271;DHT22;11804;51.118;17.058;2023-07-16T07:05:30;29.40;51.00
23271;DHT22;11804;51.118;17.058;2023-07-16T07:07:57;29.20;51.60
23271;DHT22;11804;51.118;17.058;2023-07-16T07:10:25;28.90;51.70
23271;DHT22;11804;51.118;17.058;2023-07-16T07:12:52;28.80;52.10
23271;DHT22;11804;51.118;17.058;2023-07-16T07:15:21;28.90;52.20
23271;DHT22;11804;51.118;17.058;2023-07-16T07:17:49;28.80;52.20
23271;DHT22;11804;51.118;17.058;2023-07-16T07:20:18;28.60;52.60
23271;DHT22;11804;51.118;17.058;2023-07-16T07:22:46;28.50;53.00
23271;DHT22;11804;51.118;17.058;2023-07-16T07:25:13;28.50;53.20
23271;DHT22;11804;51.118;17.058;2023-07-16T07:27:41;28.80;53.20
23271;DHT22;11804;51.118;17.058;2023-07-16T07:30:09;28.90;53.10
23271;DHT22;11804;51.118;17.058;2023-07-16T07:32:37;29.10;52.40
23271;DHT22;11804;51.118;17.058;2023-07-16T07:35:07;29.30;52.00
23271;DHT22;11804;51.118;17.058;2023-07-16T07:37:35;29.50;52.20
23271;DHT22;11804;51.118;17.058;2023-07-16T07:40:03;29.70;51.00
23271;DHT22;11804;51.118;17.058;2023-07-16T07:42:31;29.80;50.60
23271;DHT22;11804;51.118;17.058;2023-07-16T07:44:59;29.80;50.80
23271;DHT22;11804;51.118;17.058;2023-07-16T07:47:27;29.60;50.50
23271;DHT22;11804;51.118;17.058;2023-07-16T07:52:21;29.50;51.00
23271;DHT22;11804;51.118;17.058;2023-07-16T07:54:50;28.90;52.10
23271;DHT22;11804;51.118;17.058;2023-07-16T07:57:19;28.90;52.40
23271;DHT22;11804;51.118;17.058;2023-07-16T07:59:47;29.20;51.50
23271;DHT22;11804;51.118;17.058;2023-07-16T08:02:14;29.80;50.80
23271;DHT22;11804;51.118;17.058;2023-07-16T08:04:42;31.40;48.00
23271;DHT22;11804;51.118;17.058;2023-07-16T08:07:12;32.50;45.40
23271;DHT22;11804;51.118;17.058;2023-07-16T08:09:40;32.60;44.90
23271;DHT22;11804;51.118;17.058;2023-07-16T08:12:08;32.10;45.30
23271;DHT22;11804;51.118;17.058;2023-07-16T08:14:36;32.00;45.40
23271;DHT22;11804;51.118;17.058;2023-07-16T08:17:04;31.70;45.20
23271;DHT22;11804;51.118;17.058;2023-07-16T08:19:32;31.70;45.80
23271;DHT22;11804;51.118;17.058;2023-07-16T08:21:59;32.60;44.50
23271;DHT22;11804;51.118;17.058;2023-07-16T08:24:27;32.50;43.10
23271;DHT22;11804;51.118;17.058;2023-07-16T08:26:54;32.30;44.40
23271;DHT22;11804;51.118;17.058;2023-07-16T08:29:22;32.40;44.20
23271;DHT22;11804;51.118;17.058;2023-07-16T08:31:51;32.20;44.50
23271;DHT22;11804;51.118;17.058;2023-07-16T08:34:18;32.10;44.20
23271;DHT22;11804;51.118;17.058;2023-07-16T08:36:46;31.60;45.90
23271;DHT22;11804;51.118;17.058;2023-07-16T08:39:15;32.10;45.30
23271;DHT22;11804;51.118;17.058;2023-07-16T08:41:44;33.20;44.20
23271;DHT22;11804;51.118;17.058;2023-07-16T08:44:13;34.20;42.60
23271;DHT22;11804;51.118;17.058;2023-07-16T08:46:40;34.60;40.80
23271;DHT22;11804;51.118;17.058;2023-07-16T08:49:08;35.20;39.50
23271;DHT22;11804;51.118;17.058;2023-07-16T08:51:38;34.80;40.10
23271;DHT22;11804;51.118;17.058;2023-07-16T08:54:06;34.20;40.70
23271;DHT22;11804;51.118;17.058;2023-07-16T08:56:33;34.10;41.00
23271;DHT22;11804;51.118;17.058;2023-07-16T08:59:02;33.40;42.50
23271;DHT22;11804;51.118;17.058;2023-07-16T09:01:30;32.70;43.00
23271;DHT22;11804;51.118;17.058;2023-07-16T09:03:57;32.30;43.20
23271;DHT22;11804;51.118;17.058;2023-07-16T09:06:25;31.90;44.30
23271;DHT22;11804;51.118;17.058;2023-07-16T09:08:53;31.50;44.90
23271;DHT22;11804;51.118;17.058;2023-07-16T09:11:22;31.10;45.90
23271;DHT22;11804;51.118;17.058;2023-07-16T09:13:50;30.60;48.00
23271;DHT22;11804;51.118;17.058;2023-07-16T09:16:21;30.00;48.00
23271;DHT22;11804;51.118;17.058;2023-07-16T09:18:48;29.60;49.10
23271;DHT22;11804;51.118;17.058;2023-07-16T09:21:17;29.40;50.30
23271;DHT22;11804;51.118;17.058;2023-07-16T09:23:45;29.30;51.20
23271;DHT22;11804;51.118;17.058;2023-07-16T09:26:13;29.00;53.20
23271;DHT22;11804;51.118;17.058;2023-07-16T09:28:43;28.50;55.00
23271;DHT22;11804;51.118;17.058;2023-07-16T09:31:10;28.50;57.20
23271;DHT22;11804;51.118;17.058;2023-07-16T09:33:50;28.80;57.90
23271;DHT22;11804;51.118;17.058;2023-07-16T09:36:24;28.90;55.30
23271;DHT22;11804;51.118;17.058;2023-07-16T09:38:55;28.60;57.10
23271;DHT22;11804;51.118;17.058;2023-07-16T09:41:24;28.30;56.10
23271;DHT22;11804;51.118;17.058;2023-07-16T09:43:52;28.60;56.10
23271;DHT22;11804;51.118;17.058;2023-07-16T09:46:20;28.70;55.60
23271;DHT22;11804;51.118;17.058;2023-07-16T09:48:48;29.20;55.00
23271;DHT22;11804;51.118;17.058;2023-07-16T09:51:16;30.00;52.60
23271;DHT22;11804;51.118;17.058;2023-07-16T09:53:45;30.80;51.50
23271;DHT22;11804;51.118;17.058;2023-07-16T09:56:14;31.00;50.60
23271;DHT22;11804;51.118;17.058;2023-07-16T09:58:43;31.50;49.50
23271;DHT22;11804;51.118;17.058;2023-07-16T10:01:12;33.30;46.80
23271;DHT22;11804;51.118;17.058;2023-07-16T10:03:51;33.80;44.70
23271;DHT22;11804;51.118;17.058;2023-07-16T10:06:18;33.90;44.50
23271;DHT22;11804;51.118;17.058;2023-07-16T10:08:50;34.00;43.60
23271;DHT22;11804;51.118;17.058;2023-07-16T10:11:19;34.10;43.00
23271;DHT22;11804;51.118;17.058;2023-07-16T10:13:50;34.00;42.70
23271;DHT22;11804;51.118;17.058;2023-07-16T10:16:21;33.60;43.20
23271;DHT22;11804;51.118;17.058;2023-07-16T10:18:53;33.20;43.60
23271;DHT22;11804;51.118;17.058;2023-07-16T10:21:24;32.80;44.90
23271;DHT22;11804;51.118;17.058;2023-07-16T10:23:59;32.30;45.80
23271;DHT22;11804;51.118;17.058;2023-07-16T10:26:30;31.70;47.00
23271;DHT22;11804;51.118;17.058;2023-07-16T10:28:58;31.30;47.90
23271;DHT22;11804;51.118;17.058;2023-07-16T10:31:26;31.10;48.60
23271;DHT22;11804;51.118;17.058;2023-07-16T10:34:03;30.90;49.40
23271;DHT22;11804;51.118;17.058;2023-07-16T10:36:27;30.60;50.30
23271;DHT22;11804;51.118;17.058;2023-07-16T10:39:01;30.20;51.70
23271;DHT22;11804;51.118;17.058;2023-07-16T10:41:24;29.90;52.70
23271;DHT22;11804;51.118;17.058;2023-07-16T10:43:52;29.30;55.30
23271;DHT22;11804;51.118;17.058;2023-07-16T10:46:21;28.90;57.40
23271;DHT22;11804;51.118;17.058;2023-07-16T10:48:48;28.40;58.70
23271;DHT22;11804;51.118;17.058;2023-07-16T10:51:16;28.20;59.20
23271;DHT22;11804;51.118;17.058;2023-07-16T10:53:44;28.20;59.40
23271;DHT22;11804;51.118;17.058;2023-07-16T10:56:11;28.10;60.00
23271;DHT22;11804;51.118;17.058;2023-07-16T10:58:40;28.00;60.40
23271;DHT22;11804;51.118;17.058;2023-07-16T11:01:09;27.80;61.10
23271;DHT22;11804;51.118;17.058;2023-07-16T11:03:36;27.70;61.60
23271;DHT22;11804;51.118;17.058;2023-07-16T11:06:10;27.70;61.20
23271;DHT22;11804;51.118;17.058;2023-07-16T11:08:34;27.60;61.80
23271;DHT22;11804;51.118;17.058;2023-07-16T11:11:02;27.70;61.40
23271;DHT22;11804;51.118;17.058;2023-07-16T11:13:31;27.60;61.80
23271;DHT22;11804;51.118;17.058;2023-07-16T11:16:08;27.50;62.70
23271;DHT22;11804;51.118;17.058;2023-07-16T11:18:37;27.50;63.00
23271;DHT22;11804;51.118;17.058;2023-07-16T11:21:05;27.40;63.50
23271;DHT22;11804;51.118;17.058;2023-07-16T11:23:35;27.30;63.80
23271;DHT22;11804;51.118;17.058;2023-07-16T11:26:03;27.30;64.10
23271;DHT22;11804;51.118;17.058;2023-07-16T11:28:38;27.40;64.10
23271;DHT22;11804;51.118;17.058;2023-07-16T11:31:17;27.30;64.10
23271;DHT22;11804;51.118;17.058;2023-07-16T11:33:46;27.50;63.50
23271;DHT22;11804;51.118;17.058;2023-07-16T11:36:16;27.50;62.20
23271;DHT22;11804;51.118;17.058;2023-07-16T11:38:43;27.60;61.60
23271;DHT22;11804;51.118;17.058;2023-07-16T11:41:11;27.90;60.60
23271;DHT22;11804;51.118;17.058;2023-07-16T11:43:40;28.20;59.80
23271;DHT22;11804;51.118;17.058;2023-07-16T11:46:16;28.40;59.60
23271;DHT22;11804;51.118;17.058;2023-07-16T11:48:44;28.30;58.60
23271;DHT22;11804;51.118;17.058;2023-07-16T11:51:11;28.20;58.60
23271;DHT22;11804;51.118;17.058;2023-07-16T11:53:39;28.10;58.70
23271;DHT22;11804;51.118;17.058;2023-07-16T11:56:06;27.90;59.00
23271;DHT22;11804;51.118;17.058;2023-07-16T11:58:34;27.80;59.30
23271;DHT22;11804;51.118;17.058;2023-07-16T12:01:02;27.80;59.40
23271;DHT22;11804;51.118;17.058;2023-07-16T12:03:29;27.70;59.60
23271;DHT22;11804;51.118;17.058;2023-07-16T12:05:57;27.60;59.80
23271;DHT22;11804;51.118;17.058;2023-07-16T12:08:25;27.70;59.90
23271;DHT22;11804;51.118;17.058;2023-07-16T12:10:52;27.70;59.30
23271;DHT22;11804;51.118;17.058;2023-07-16T12:13:20;27.70;59.30
23271;DHT22;11804;51.118;17.058;2023-07-16T12:15:48;27.70;59.20
23271;DHT22;11804;51.118;17.058;2023-07-16T12:18:15;27.80;59.40
23271;DHT22;11804;51.118;17.058;2023-07-16T12:20:43;27.90;59.00
23271;DHT22;11804;51.118;17.058;2023-07-16T12:23:10;28.10;58.50
23271;DHT22;11804;51.118;17.058;2023-07-16T12:25:38;28.20;58.20
23271;DHT22;11804;51.118;17.058;2023-07-16T12:28:06;28.40;58.00
23271;DHT22;11804;51.118;17.058;2023-07-16T12:30:33;28.50;57.80
23271;DHT22;11804;51.118;17.058;2023-07-16T12:33:01;28.60;57.60
23271;DHT22;11804;51.118;17.058;2023-07-16T12:35:30;28.70;57.20
23271;DHT22;11804;51.118;17.058;2023-07-16T12:37:58;28.80;57.10
23271;DHT22;11804;51.118;17.058;2023-07-16T12:40:27;28.90;57.00
23271;DHT22;11804;51.118;17.058;2023-07-16T12:42:55;29.00;56.70
23271;DHT22;11804;51.118;17.058;2023-07-16T12:45:22;29.00;56.50
23271;DHT22;11804;51.118;17.058;2023-07-16T12:47:50;29.10;56.50
23271;DHT22;11804;51.118;17.058;2023-07-16T12:50:17;29.40;55.90
23271;DHT22;11804;51.118;17.058;2023-07-16T12:52:45;29.10;56.30
23271;DHT22;11804;51.118;17.058;2023-07-16T12:55:12;29.00;56.40
23271;DHT22;11804;51.118;17.058;2023-07-16T12:57:40;29.10;56.40
23271;DHT22;11804;51.118;17.058;2023-07-16T13:00:08;29.00;56.70
23271;DHT22;11804;51.118;17.058;2023-07-16T13:02:38;29.20;56.60
23271;DHT22;11804;51.118;17.058;2023-07-16T13:05:06;29.30;56.20
23271;DHT22;11804;51.118;17.058;2023-07-16T13:07:34;29.10;56.40
23271;DHT22;11804;51.118;17.058;2023-07-16T13:10:03;29.20;56.40
23271;DHT22;11804;51.118;17.058;2023-07-16T13:12:31;29.10;56.50
23271;DHT22;11804;51.118;17.058;2023-07-16T13:14:58;28.90;56.90
23271;DHT22;11804;51.118;17.058;2023-07-16T13:17:26;28.80;57.40
23271;DHT22;11804;51.118;17.058;2023-07-16T13:19:54;28.60;57.80
23271;DHT22;11804;51.118;17.058;2023-07-16T13:22:24;28.40;58.40
23271;DHT22;11804;51.118;17.058;2023-07-16T13:24:52;28.30;59.10
23271;DHT22;11804;51.118;17.058;2023-07-16T13:27:21;28.20;59.60
23271;DHT22;11804;51.118;17.058;2023-07-16T13:29:49;28.20;59.70
23271;DHT22;11804;51.118;17.058;2023-07-16T13:32:16;28.20;60.00
23271;DHT22;11804;51.118;17.058;2023-07-16T13:34:44;28.30;59.80
23271;DHT22;11804;51.118;17.058;2023-07-16T13:37:12;28.40;59.70
23271;DHT22;11804;51.118;17.058;2023-07-16T13:39:40;28.50;59.60
23271;DHT22;11804;51.118;17.058;2023-07-16T13:42:08;28.50;59.50
23271;DHT22;11804;51.118;17.058;2023-07-16T13:44:37;28.80;59.10
23271;DHT22;11804;51.118;17.058;2023-07-16T13:47:05;29.00;58.50
23271;DHT22;11804;51.118;17.058;2023-07-16T13:49:32;29.30;57.80
23271;DHT22;11804;51.118;17.058;2023-07-16T13:52:00;29.10;57.90
23271;DHT22;11804;51.118;17.058;2023-07-16T13:54:28;29.20;57.50
23271;DHT22;11804;51.118;17.058;2023-07-16T13:56:55;29.30;57.10
23271;DHT22;11804;51.118;17.058;2023-07-16T13:59:23;29.30;57.00
23271;DHT22;11804;51.118;17.058;2023-07-16T14:02:03;29.30;57.20
23271;DHT22;11804;51.118;17.058;2023-07-16T14:04:28;29.00;57.70
23271;DHT22;11804;51.118;17.058;2023-07-16T14:06:56;29.20;58.20
23271;DHT22;11804;51.118;17.058;2023-07-16T14:09:23;29.40;57.40
23271;DHT22;11804;51.118;17.058;2023-07-16T14:11:51;29.20;57.20
23271;DHT22;11804;51.118;17.058;2023-07-16T14:14:18;28.90;57.90
23271;DHT22;11804;51.118;17.058;2023-07-16T14:16:47;28.80;58.50
23271;DHT22;11804;51.118;17.058;2023-07-16T14:19:14;28.60;59.20
23271;DHT22;11804;51.118;17.058;2023-07-16T14:21:43;28.50;59.60
23271;DHT22;11804;51.118;17.058;2023-07-16T14:24:11;28.40;60.00
23271;DHT22;11804;51.118;17.058;2023-07-16T14:26:38;28.50;60.20
23271;DHT22;11804;51.118;17.058;2023-07-16T14:29:06;28.50;60.10
23271;DHT22;11804;51.118;17.058;2023-07-16T14:31:35;28.50;58.00
23271;DHT22;11804;51.118;17.058;2023-07-16T14:34:02;28.40;58.80
23271;DHT22;11804;51.118;17.058;2023-07-16T14:36:30;28.20;60.20
23271;DHT22;11804;51.118;17.058;2023-07-16T14:38:57;28.20;60.70
23271;DHT22;11804;51.118;17.058;2023-07-16T14:41:25;28.20;60.50
23271;DHT22;11804;51.118;17.058;2023-07-16T14:43:52;28.10;60.80
23271;DHT22;11804;51.118;17.058;2023-07-16T14:46:22;28.00;61.70
23271;DHT22;11804;51.118;17.058;2023-07-16T14:48:49;27.90;62.10
23271;DHT22;11804;51.118;17.058;2023-07-16T14:51:18;27.90;62.10
23271;DHT22;11804;51.118;17.058;2023-07-16T14:53:46;28.00;62.10
23271;DHT22;11804;51.118;17.058;2023-07-16T14:56:14;27.90;62.00
23271;DHT22;11804;51.118;17.058;2023-07-16T14:58:41;28.10;62.20
23271;DHT22;11804;51.118;17.058;2023-07-16T15:01:09;28.10;61.90
23271;DHT22;11804;51.118;17.058;2023-07-16T15:03:38;28.10;61.90
23271;DHT22;11804;51.118;17.058;2023-07-16T15:06:07;28.10;62.10
23271;DHT22;11804;51.118;17.058;2023-07-16T15:08:36;28.00;62.70
23271;DHT22;11804;51.118;17.058;2023-07-16T15:11:03;28.00;63.80
23271;DHT22;11804;51.118;17.058;2023-07-16T15:13:31;27.90;64.10
23271;DHT22;11804;51.118;17.058;2023-07-16T15:15:59;27.80;65.00
23271;DHT22;11804;51.118;17.058;2023-07-16T15:18:26;27.70;64.70
23271;DHT22;11804;51.118;17.058;2023-07-16T15:21:01;27.70;65.00
23271;DHT22;11804;51.118;17.058;2023-07-16T15:23:30;27.80;65.40
23271;DHT22;11804;51.118;17.058;2023-07-16T15:26:04;27.80;65.40
23271;DHT22;11804;51.118;17.058;2023-07-16T15:28:36;27.80;66.10
23271;DHT22;11804;51.118;17.058;2023-07-16T15:31:04;27.80;64.90
23271;DHT22;11804;51.118;17.058;2023-07-16T15:33:32;27.80;65.00